デンパサール の空港の天気 - METARとTAF

デンパサール国際空港 ( WADD / DPS ) - インドネシア バリ島デンパサール
飛行場実況気象(Metar)
観測時間11/20 17:00 WITA (11/20 09:00 UTC)
風向・風速東南東 2m/s
視程10km以上
天気現象
全天の4割程度の雲 雲底高度 460m
気温28℃
湿度89%
気圧1005hPa
METARWADD 200900Z 12003KT 090V170 9999 SCT015 28/26 Q1005 NOSIG
過去の天気等 Google飛行場航空写真 Wunderground天気予報

過去48時間のMETAR

飛行場予報(TAF)
発表時間: 11/20 14:00 WITA (11/20 06:00 UTC)
予報対象時間: 20日14時 WITA ~ 21日14時 WITA
風向・風速西 4m/s
視程10km以上
少しの積乱雲 雲底高度 490m
全天の4割程度の雲 雲底高度 490m
20日14時 WITA ~ 20日18時 WITA に一時的に
視程5,000m
天気現象雷雨
少しの積乱雲 雲底高度 460m
全天の8割程度の雲 雲底高度 490m
20日22時 WITA ~ 20日24時 WITA に徐々に
風向・風速不定 3m/s
TAF AMD WADD 200600Z 2006/2106 27008KT 9999 FEW016CB SCT016
TEMPO 2006/2010 5000 TSRA FEW015CB BKN016
BECMG 2014/2016 VRB05KT